Terminal Aerodrome Forecast
Issued by NWS

Home | Current Version | Previous Version | Graphics & Text | Print | Product List | Glossary On
Versions: 1 2 3 4 5 6 7 8 9 10 11 12 13 14 15 16 17 18 19 20
000
FTUS43 KMPX 251346 AAA
TAFAXN
TAF AMD
KAXN 251346Z 2514/2612 29018G28KT P6SM VCSH SCT007 OVC015
      TEMPO 2514/2516 2SM -SN OVC010
     FM251600 30027G36KT P6SM BKN020
     FM260100 32016G25KT P6SM SCT030
     FM260700 33011KT P6SM SKC=

USA.gov is the U.S. government's official web portal to all federal, state and local government web resources and services.